createdAt,value
2022-08-08T00:00:55.850Z,16.10
2022-08-08T00:03:32.109Z,14.80
2022-08-08T00:08:51.532Z,16.40
2022-08-08T00:11:46.757Z,15.90
2022-08-08T00:14:59.356Z,15.90
2022-08-08T00:18:03.804Z,15.80
2022-08-08T00:20:44.428Z,17.20
2022-08-08T00:23:16.600Z,15.10
2022-08-08T00:25:51.151Z,15.70
2022-08-08T00:28:35.638Z,14.50
2022-08-08T00:32:14.916Z,15.60
2022-08-08T00:34:53.792Z,15.50
2022-08-08T00:37:47.692Z,14.40
2022-08-08T00:41:11.593Z,15.10
2022-08-08T00:43:46.141Z,14.20
2022-08-08T00:46:57.354Z,15.10
2022-08-08T00:49:58.765Z,14.10
2022-08-08T00:53:14.085Z,15.40
2022-08-08T00:56:16.595Z,15.30
2022-08-08T00:58:59.290Z,15.20
2022-08-08T01:04:47.379Z,16.50
2022-08-08T01:07:34.427Z,15.10
2022-08-08T01:10:57.717Z,14.20
2022-08-08T01:16:30.349Z,14.90
2022-08-08T01:19:52.445Z,16.30
2022-08-08T01:22:52.958Z,14.90
2022-08-08T01:25:58.471Z,13.80
2022-08-08T01:29:00.796Z,15.70
2022-08-08T01:32:14.659Z,13.90
2022-08-08T01:35:29.736Z,14.70
2022-08-08T01:38:38.065Z,16.10
2022-08-08T01:41:19.147Z,16.00
2022-08-08T01:44:10.802Z,13.70
2022-08-08T01:47:00.337Z,14.60
2022-08-08T01:49:53.593Z,13.70
2022-08-08T01:56:27.196Z,14.20
2022-08-08T01:58:46.334Z,14.40
2022-08-08T02:02:05.247Z,15.70
2022-08-08T02:04:53.853Z,15.60
2022-08-08T02:08:05.049Z,14.30
2022-08-08T02:10:59.135Z,14.30
2022-08-08T02:16:43.588Z,13.70
2022-08-08T02:19:56.994Z,13.60
2022-08-08T02:22:33.788Z,14.20
2022-08-08T02:25:23.206Z,15.50
2022-08-08T02:28:04.333Z,14.20
2022-08-08T02:31:04.677Z,15.50
2022-08-08T02:36:51.615Z,15.20
2022-08-08T02:39:59.930Z,13.80
2022-08-08T02:42:41.935Z,12.80
2022-08-08T02:45:56.769Z,14.00
2022-08-08T02:48:56.491Z,14.00
2022-08-08T02:51:55.584Z,15.00
2022-08-08T02:54:52.766Z,12.80
2022-08-08T02:57:46.748Z,15.00
2022-08-08T03:00:50.697Z,13.80
2022-08-08T03:05:00.750Z,15.20
2022-08-08T03:07:13.392Z,14.50
2022-08-08T03:10:32.877Z,12.80
2022-08-08T03:15:57.494Z,14.10
2022-08-08T03:17:04.174Z,13.40
2022-08-08T03:20:10.375Z,13.60
2022-08-08T03:22:56.627Z,13.80
2022-08-08T03:25:34.051Z,13.80
2022-08-08T03:28:25.925Z,13.80
2022-08-08T03:31:22.215Z,13.90
2022-08-08T03:33:58.489Z,13.80
2022-08-08T03:36:30.102Z,14.90
2022-08-08T03:39:14.361Z,12.30
2022-08-08T03:42:26.868Z,13.50
2022-08-08T03:50:01.016Z,13.50
2022-08-08T03:55:20.026Z,14.70
2022-08-08T03:58:34.782Z,14.70
2022-08-08T04:04:00.272Z,12.60
2022-08-08T04:06:39.136Z,13.30
2022-08-08T04:09:11.202Z,12.20
2022-08-08T04:11:48.510Z,13.40
2022-08-08T04:17:04.289Z,12.10
2022-08-08T04:19:36.637Z,14.30
2022-08-08T04:22:04.523Z,12.20
2022-08-08T04:27:10.592Z,14.10
2022-08-08T04:30:00.991Z,13.00
2022-08-08T04:32:47.968Z,12.20
2022-08-08T04:35:18.380Z,13.00
2022-08-08T04:40:24.217Z,13.30
2022-08-08T04:42:57.981Z,14.70
2022-08-08T04:45:33.504Z,12.80
2022-08-08T04:50:37.844Z,12.40
2022-08-08T04:53:52.261Z,12.50
2022-08-08T04:58:25.540Z,13.90
2022-08-08T05:00:52.962Z,12.80
2022-08-08T05:06:13.235Z,14.40
2022-08-08T05:08:51.697Z,13.30
2022-08-08T05:11:23.943Z,13.80
2022-08-08T05:16:50.968Z,12.90
2022-08-08T05:22:10.219Z,14.40
2022-08-08T05:24:41.569Z,14.50
2022-08-08T05:34:49.250Z,15.20
2022-08-08T05:37:28.351Z,15.00
2022-08-08T05:40:14.788Z,14.10
2022-08-08T05:42:49.568Z,15.20
2022-08-08T05:45:30.856Z,16.30
2022-08-08T05:48:08.800Z,16.60
2022-08-08T05:50:39.019Z,16.80
2022-08-08T05:56:10.955Z,14.30
2022-08-08T05:58:57.514Z,14.40
2022-08-08T06:04:22.688Z,16.40
2022-08-08T06:06:53.755Z,15.90
2022-08-08T06:09:59.038Z,16.80
2022-08-08T06:12:30.910Z,14.90
2022-08-08T06:15:02.765Z,17.50
2022-08-08T06:17:51.587Z,14.90
2022-08-08T06:20:25.951Z,15.30
2022-08-08T06:28:37.876Z,15.40
2022-08-08T06:31:09.821Z,15.40
2022-08-08T06:34:26.191Z,16.70
2022-08-08T06:36:53.246Z,17.20
2022-08-08T06:39:22.309Z,17.60
2022-08-08T06:41:53.038Z,18.00
2022-08-08T06:44:25.038Z,17.20
2022-08-08T06:46:56.980Z,17.20
2022-08-08T06:49:56.597Z,17.00
2022-08-08T06:54:44.456Z,18.20
2022-08-08T06:57:16.105Z,16.80
2022-08-08T07:02:34.157Z,17.70
2022-08-08T07:07:43.414Z,17.90
2022-08-08T07:12:47.749Z,18.10
2022-08-08T07:16:04.703Z,18.60
2022-08-08T07:21:19.357Z,18.40
2022-08-08T07:24:05.916Z,17.60
2022-08-08T07:26:46.962Z,18.70
2022-08-08T07:29:41.390Z,17.50
2022-08-08T07:32:10.581Z,17.70
2022-08-08T07:34:59.331Z,20.40
2022-08-08T07:37:49.826Z,19.70
2022-08-08T07:40:28.929Z,19.10
2022-08-08T07:45:34.605Z,21.00
2022-08-08T07:54:02.201Z,20.00
2022-08-08T07:56:44.076Z,21.20
2022-08-08T07:59:15.685Z,20.40
2022-08-08T08:02:36.323Z,22.00
2022-08-08T08:07:25.928Z,22.20
2022-08-08T08:10:04.622Z,19.80
2022-08-08T08:12:41.433Z,20.30
2022-08-08T08:15:15.821Z,21.50
2022-08-08T08:17:49.026Z,21.60
2022-08-08T08:20:30.463Z,21.90
2022-08-08T08:23:00.988Z,23.20
2022-08-08T08:25:42.772Z,23.50
2022-08-08T08:33:21.084Z,23.80
2022-08-08T08:38:49.536Z,23.60
2022-08-08T08:41:19.992Z,23.40
2022-08-08T08:43:50.667Z,22.10
2022-08-08T08:46:20.150Z,24.60
2022-08-08T08:48:54.994Z,25.20
2022-08-08T08:51:26.494Z,25.40
2022-08-08T08:54:01.662Z,22.70
2022-08-08T08:56:36.409Z,24.20
2022-08-08T08:59:22.086Z,25.20
2022-08-08T09:01:59.073Z,25.90
2022-08-08T09:04:38.595Z,26.00
2022-08-08T09:07:23.624Z,24.00
2022-08-08T09:09:55.330Z,25.60
2022-08-08T09:12:37.367Z,25.80
2022-08-08T09:15:06.449Z,25.30
2022-08-08T09:17:41.766Z,24.30
2022-08-08T09:21:57.056Z,22.50
2022-08-08T09:23:11.204Z,22.90
2022-08-08T09:26:00.660Z,22.50
2022-08-08T09:28:38.583Z,24.10
2022-08-08T09:31:16.801Z,22.60
2022-08-08T09:34:15.912Z,22.40
2022-08-08T09:37:28.618Z,27.40
2022-08-08T09:39:35.571Z,25.50
2022-08-08T09:42:20.241Z,23.20
2022-08-08T09:45:20.876Z,24.30
2022-08-08T09:48:15.962Z,24.60
2022-08-08T09:50:50.381Z,22.40
2022-08-08T09:53:24.864Z,23.40
2022-08-08T09:56:12.440Z,23.30
2022-08-08T09:59:20.103Z,23.20
2022-08-08T10:01:59.816Z,22.90
2022-08-08T10:04:38.576Z,22.60
2022-08-08T10:07:13.901Z,21.40
2022-08-08T10:10:00.860Z,22.50
2022-08-08T10:12:38.575Z,23.60
2022-08-08T10:15:21.858Z,24.00
2022-08-08T10:18:07.781Z,23.90
2022-08-08T10:20:57.752Z,22.40
2022-08-08T10:23:56.108Z,22.50
2022-08-08T10:26:52.085Z,21.20
2022-08-08T10:29:24.908Z,21.60
2022-08-08T10:32:16.414Z,22.90
2022-08-08T10:34:57.115Z,24.20
2022-08-08T10:37:34.576Z,22.70
2022-08-08T10:40:16.457Z,24.20
2022-08-08T10:42:47.027Z,25.10
2022-08-08T10:45:15.974Z,23.00
2022-08-08T10:47:50.332Z,24.60
2022-08-08T10:50:23.883Z,24.80
2022-08-08T10:52:51.395Z,25.30
2022-08-08T10:55:40.416Z,26.30
2022-08-08T10:58:10.006Z,26.40
2022-08-08T11:00:48.505Z,26.40
2022-08-08T11:03:52.353Z,27.90
2022-08-08T11:06:07.360Z,29.40
2022-08-08T11:08:53.257Z,28.00
2022-08-08T11:11:32.722Z,30.60
2022-08-08T11:14:12.312Z,30.90
2022-08-08T11:16:46.900Z,29.40
2022-08-08T11:19:15.659Z,29.80
2022-08-08T11:21:55.446Z,30.10
2022-08-08T11:24:25.948Z,30.00
2022-08-08T11:26:57.194Z,31.80
2022-08-08T11:29:41.627Z,30.70
2022-08-08T11:32:15.601Z,31.00
2022-08-08T11:35:23.541Z,30.60
2022-08-08T11:38:39.735Z,31.10
2022-08-08T11:40:27.059Z,29.30
2022-08-08T11:43:00.158Z,29.90
2022-08-08T11:45:27.806Z,29.10
2022-08-08T11:48:05.147Z,28.70
2022-08-08T11:50:34.016Z,29.30
2022-08-08T11:53:06.213Z,28.40
2022-08-08T11:55:36.403Z,28.00
2022-08-08T11:58:14.667Z,27.00
2022-08-08T12:00:53.740Z,27.30
2022-08-08T12:03:20.889Z,27.40
2022-08-08T12:05:48.952Z,25.50
2022-08-08T12:08:17.916Z,27.70
2022-08-08T12:10:50.126Z,28.00
2022-08-08T12:13:38.394Z,27.10
2022-08-08T12:16:15.764Z,28.50
2022-08-08T12:18:48.893Z,28.20
2022-08-08T12:22:00.317Z,28.10
2022-08-08T12:24:20.816Z,29.70
2022-08-08T12:26:57.160Z,27.90
2022-08-08T12:29:39.952Z,28.40
2022-08-08T12:32:16.993Z,29.10
2022-08-08T12:35:13.117Z,26.30
2022-08-08T12:38:01.208Z,27.70
2022-08-08T12:40:55.874Z,27.10
2022-08-08T12:43:47.684Z,27.30
2022-08-08T12:46:26.522Z,28.10
2022-08-08T12:49:25.047Z,25.90
2022-08-08T12:51:59.347Z,27.20
2022-08-08T12:54:38.261Z,26.90
2022-08-08T12:57:23.349Z,25.50
2022-08-08T13:00:03.499Z,26.40
2022-08-08T13:02:37.947Z,26.90
2022-08-08T13:05:26.617Z,28.00
2022-08-08T13:08:18.341Z,25.90
2022-08-08T13:11:04.228Z,25.40
2022-08-08T13:13:34.825Z,25.70
2022-08-08T13:16:18.998Z,27.50
2022-08-08T13:18:57.365Z,29.20
2022-08-08T13:21:49.068Z,29.20
2022-08-08T13:24:19.020Z,30.10
2022-08-08T13:27:11.734Z,30.40
2022-08-08T13:29:57.897Z,29.10
2022-08-08T13:32:27.068Z,29.70
2022-08-08T13:34:58.929Z,29.20
2022-08-08T13:37:51.634Z,28.80
2022-08-08T13:40:17.654Z,28.30
2022-08-08T13:42:54.700Z,27.80
2022-08-08T13:45:24.260Z,27.70
2022-08-08T13:48:02.884Z,29.00
2022-08-08T13:50:49.360Z,28.00
2022-08-08T13:53:34.179Z,28.00
2022-08-08T13:56:10.830Z,28.00
2022-08-08T13:58:57.572Z,28.40
2022-08-08T14:01:33.085Z,28.00
2022-08-08T14:04:24.328Z,28.20
2022-08-08T14:07:02.728Z,29.70
2022-08-08T14:10:04.755Z,28.80
2022-08-08T14:12:27.859Z,29.00
2022-08-08T14:14:55.157Z,28.80
2022-08-08T14:17:57.255Z,29.00
2022-08-08T14:20:15.554Z,28.30
2022-08-08T14:23:10.350Z,27.70
2022-08-08T14:25:55.310Z,27.50
2022-08-08T14:28:29.136Z,29.10
2022-08-08T14:31:10.351Z,28.20
2022-08-08T14:33:37.463Z,27.40
2022-08-08T14:36:06.841Z,26.90
2022-08-08T14:38:52.392Z,27.30
2022-08-08T14:41:53.489Z,29.90
2022-08-08T14:44:21.110Z,31.50
2022-08-08T14:47:01.077Z,30.70
2022-08-08T14:49:51.428Z,31.00
2022-08-08T14:52:21.802Z,31.30
2022-08-08T14:54:50.037Z,31.00
2022-08-08T14:57:17.183Z,31.70
2022-08-08T14:59:51.199Z,32.40
2022-08-08T15:02:25.703Z,32.60
2022-08-08T15:04:57.759Z,34.00
2022-08-08T15:07:40.406Z,32.80
2022-08-08T15:10:09.362Z,32.70
2022-08-08T15:12:37.324Z,33.30
2022-08-08T15:15:06.524Z,32.40
2022-08-08T15:17:33.538Z,33.50
2022-08-08T15:20:04.590Z,34.00
2022-08-08T15:22:31.661Z,33.50
2022-08-08T15:24:58.432Z,33.00
2022-08-08T15:28:03.548Z,32.30
2022-08-08T15:30:14.601Z,31.00
2022-08-08T15:32:43.178Z,32.00
2022-08-08T15:35:10.948Z,31.80
2022-08-08T15:37:39.123Z,29.80
2022-08-08T15:40:11.154Z,30.80
2022-08-08T15:42:41.734Z,32.20
2022-08-08T15:45:10.772Z,31.80
2022-08-08T15:47:37.622Z,31.50
2022-08-08T15:50:09.626Z,31.60
2022-08-08T15:52:46.661Z,31.50
2022-08-08T15:55:13.979Z,29.60
2022-08-08T15:57:40.776Z,30.30
2022-08-08T16:00:27.014Z,29.90
2022-08-08T16:02:55.902Z,28.90
2022-08-08T16:05:24.959Z,28.90
2022-08-08T16:08:02.411Z,29.60
2022-08-08T16:13:14.683Z,29.60
2022-08-08T16:13:30.596Z,31.00
2022-08-08T16:16:13.263Z,30.30
2022-08-08T16:18:56.205Z,30.50
2022-08-08T16:21:26.842Z,29.60
2022-08-08T16:23:55.599Z,30.90
2022-08-08T16:26:33.942Z,31.00
2022-08-08T16:29:08.976Z,31.10
2022-08-08T16:31:40.184Z,31.20
2022-08-08T16:34:07.229Z,31.10
2022-08-08T16:36:36.500Z,31.10
2022-08-08T16:39:09.962Z,31.10
2022-08-08T16:41:53.948Z,31.10
2022-08-08T16:44:33.338Z,31.20
2022-08-08T16:47:40.093Z,30.90
2022-08-08T16:50:13.737Z,30.70
2022-08-08T16:55:18.385Z,30.60
2022-08-08T16:55:54.482Z,30.60
2022-08-08T16:58:21.175Z,30.80
2022-08-08T17:00:53.092Z,28.00
2022-08-08T17:03:25.322Z,30.70
2022-08-08T17:06:35.462Z,30.80
2022-08-08T17:08:54.464Z,29.80
2022-08-08T17:11:21.224Z,32.00
2022-08-08T17:14:01.379Z,30.50
2022-08-08T17:16:29.165Z,30.50
2022-08-08T17:18:56.778Z,29.40
2022-08-08T17:21:26.119Z,30.40
2022-08-08T17:24:00.878Z,30.50
2022-08-08T17:26:29.970Z,30.40
2022-08-08T17:29:04.235Z,31.20
2022-08-08T17:31:43.509Z,30.50
2022-08-08T17:34:49.772Z,30.50
2022-08-08T17:37:03.914Z,28.90
2022-08-08T17:40:03.818Z,30.40
2022-08-08T17:42:21.086Z,30.20
2022-08-08T17:44:51.036Z,30.10
2022-08-08T17:47:24.350Z,29.90
2022-08-08T17:50:01.425Z,29.70
2022-08-08T17:52:34.244Z,29.30
2022-08-08T17:55:05.688Z,29.30
2022-08-08T17:57:49.394Z,29.00
2022-08-08T18:00:21.291Z,28.60
2022-08-08T18:03:02.175Z,28.40
2022-08-08T18:05:48.341Z,27.50
2022-08-08T18:08:38.311Z,27.90
2022-08-08T18:11:14.504Z,28.20
2022-08-08T18:13:44.419Z,27.00
2022-08-08T18:16:12.703Z,27.20
2022-08-08T18:18:45.524Z,27.30
2022-08-08T18:21:24.838Z,27.60
2022-08-08T18:24:02.670Z,26.90
2022-08-08T18:26:29.773Z,27.10
2022-08-08T18:28:57.722Z,26.30
2022-08-08T18:31:25.134Z,26.20
2022-08-08T18:34:25.093Z,26.30
2022-08-08T18:36:41.480Z,25.90
2022-08-08T18:39:16.579Z,25.70
2022-08-08T18:42:03.076Z,25.10
2022-08-08T18:44:33.121Z,24.40
2022-08-08T18:47:01.829Z,23.60
2022-08-08T18:49:32.588Z,23.30
2022-08-08T18:52:18.438Z,25.10
2022-08-08T18:55:00.732Z,24.40
2022-08-08T19:07:57.583Z,24.90
2022-08-08T19:10:24.650Z,22.30
2022-08-08T19:15:21.691Z,24.10
2022-08-08T19:18:32.689Z,24.10
2022-08-08T19:20:39.646Z,23.60
2022-08-08T19:23:10.252Z,21.70
2022-08-08T19:26:20.402Z,21.60
2022-08-08T19:28:24.439Z,21.80
2022-08-08T19:31:04.038Z,23.40
2022-08-08T19:41:22.038Z,23.20
2022-08-08T19:46:33.675Z,21.30
2022-08-08T19:49:01.670Z,21.90
2022-08-08T19:51:34.572Z,21.20
2022-08-08T19:54:07.022Z,22.50
2022-08-08T19:56:40.215Z,22.60
2022-08-08T19:59:12.304Z,23.30
2022-08-08T20:02:02.246Z,23.30
2022-08-08T20:06:56.748Z,21.80
2022-08-08T20:09:24.250Z,22.20
2022-08-08T20:11:52.180Z,20.40
2022-08-08T20:14:35.566Z,21.60
2022-08-08T20:17:04.285Z,21.60
2022-08-08T20:19:33.639Z,21.00
2022-08-08T20:22:03.222Z,20.50
2022-08-08T20:24:32.187Z,20.50
2022-08-08T20:26:59.017Z,22.80
2022-08-08T20:32:14.346Z,22.70
2022-08-08T20:34:47.869Z,22.40
2022-08-08T20:37:20.571Z,20.10
2022-08-08T20:39:51.725Z,19.90
2022-08-08T20:42:28.398Z,21.10
2022-08-08T20:44:57.174Z,20.20
2022-08-08T20:52:26.358Z,20.90
2022-08-08T20:54:53.362Z,20.00
2022-08-08T20:57:21.120Z,19.80
2022-08-08T20:59:48.554Z,20.00
2022-08-08T21:04:57.340Z,20.70
2022-08-08T21:12:44.587Z,21.90
2022-08-08T21:18:00.368Z,20.90
2022-08-08T21:20:34.589Z,19.30
2022-08-08T21:23:02.849Z,20.10
2022-08-08T21:25:33.068Z,19.90
2022-08-08T21:28:13.383Z,19.10
2022-08-08T21:30:49.602Z,21.00
2022-08-08T21:33:16.981Z,19.00
2022-08-08T21:38:31.062Z,20.60
2022-08-08T21:40:58.275Z,20.50
2022-08-08T21:43:33.459Z,19.40
2022-08-08T21:48:07.691Z,19.90
2022-08-08T21:48:54.665Z,18.60
2022-08-08T21:54:17.368Z,19.20
2022-08-08T21:54:35.828Z,19.30
2022-08-08T21:57:03.597Z,19.80
2022-08-08T22:04:50.486Z,18.30
2022-08-08T22:07:18.382Z,18.30
2022-08-08T22:09:45.909Z,18.90
2022-08-08T22:12:16.728Z,20.70
2022-08-08T22:17:16.573Z,18.30
2022-08-08T22:20:13.189Z,19.10
2022-08-08T22:25:17.683Z,19.20
2022-08-08T22:28:02.612Z,18.10
2022-08-08T22:41:21.458Z,17.90
2022-08-08T22:46:34.114Z,18.60
2022-08-08T22:49:01.844Z,19.50
2022-08-08T22:51:29.555Z,17.70
2022-08-08T22:54:30.321Z,17.80
2022-08-08T22:59:18.536Z,18.40
2022-08-08T23:02:03.686Z,17.60
2022-08-08T23:04:33.579Z,20.10
2022-08-08T23:07:02.863Z,18.40
2022-08-08T23:12:28.534Z,18.70
2022-08-08T23:14:59.763Z,19.10
2022-08-08T23:20:21.181Z,17.80
2022-08-08T23:22:55.108Z,19.80
2022-08-08T23:27:49.765Z,17.30
2022-08-08T23:30:22.668Z,17.40
2022-08-08T23:35:18.835Z,17.20
2022-08-08T23:40:31.574Z,18.50
2022-08-08T23:42:58.612Z,17.20
2022-08-08T23:49:05.467Z,18.60
2022-08-08T23:51:05.180Z,18.70
2022-08-08T23:56:32.483Z,17.80
2022-08-08T23:59:02.206Z,18.20
